Time;durP1;ratioP1;P1;durP2;ratioP2;P2;SDS_P1;SDS_P2;PMS_P1;PMS_P2;Temp;Humidity;BMP_temperature;BMP_pressure;BME280_temperature;BME280_humidity;BME280_pressure;Samples;Min_cycle;Max_cycle;Signal;HPM_P1;HPM_P2
2023/09/03 00:00:42;;;;;;;8.00;4.72;;;14.60;99.90;;;;;;5079416;28;20059;-87
2023/09/03 00:03:08;;;;;;;6.97;5.47;;;14.60;99.90;;;;;;5079840;28;20028;-87
2023/09/03 00:05:34;;;;;;;6.20;4.97;;;14.60;99.90;;;;;;5079941;28;20054;-87
2023/09/03 00:08:00;;;;;;;6.88;5.32;;;14.60;99.90;;;;;;5079836;28;20490;-87
2023/09/03 00:10:26;;;;;;;9.63;4.95;;;14.50;99.90;;;;;;5079873;28;20024;-87
2023/09/03 00:12:51;;;;;;;5.65;4.97;;;14.50;99.90;;;;;;5079343;28;20016;-86
2023/09/03 00:15:23;;;;;;;8.45;5.13;;;14.40;99.90;;;;;;5079614;28;20468;-87
2023/09/03 00:17:56;;;;;;;6.57;5.35;;;14.40;99.90;;;;;;5079483;28;20068;-87
2023/09/03 00:24:09;;;;;;;7.63;5.55;;;14.30;99.90;;;;;;5099573;28;20490;-87
2023/09/03 00:26:35;;;;;;;6.05;5.13;;;14.30;99.90;;;;;;5090689;28;20032;-88
2023/09/03 00:29:01;;;;;;;7.05;5.40;;;14.30;99.90;;;;;;5082715;28;20069;-87
2023/09/03 00:31:27;;;;;;;5.65;4.57;;;14.30;99.90;;;;;;5083311;28;20028;-87
2023/09/03 00:33:53;;;;;;;8.48;5.20;;;14.30;99.90;;;;;;5082953;28;20415;-87
2023/09/03 00:36:19;;;;;;;10.75;5.75;;;14.20;99.90;;;;;;5082836;28;20024;-87
2023/09/03 00:38:49;;;;;;;8.40;4.93;;;14.20;99.90;;;;;;5082886;28;20039;-87
2023/09/03 00:41:15;;;;;;;6.45;5.03;;;14.30;99.90;;;;;;5082448;28;20046;-86
2023/09/03 00:43:40;;;;;;;10.77;5.35;;;14.20;99.90;;;;;;5100954;28;20029;-87
2023/09/03 00:46:08;;;;;;;8.82;5.60;;;14.20;99.90;;;;;;5083424;28;20035;-87
2023/09/03 00:48:35;;;;;;;9.40;5.35;;;14.10;99.90;;;;;;5065837;28;20051;-87
2023/09/03 00:51:07;;;;;;;6.63;5.43;;;14.10;99.90;;;;;;5066090;28;20066;-87
2023/09/03 00:53:35;;;;;;;9.82;5.60;;;14.10;99.90;;;;;;5081314;28;20032;-87
2023/09/03 00:56:01;;;;;;;6.47;4.88;;;14.10;99.90;;;;;;5077633;28;20048;-87
2023/09/03 00:58:27;;;;;;;7.18;5.18;;;14.00;99.90;;;;;;5094833;28;20063;-87
2023/09/03 01:00:53;;;;;;;9.57;5.57;;;14.00;99.90;;;;;;5078127;28;20078;-87
2023/09/03 01:03:19;;;;;;;6.82;5.30;;;14.00;99.90;;;;;;5077967;28;20040;-87
2023/09/03 01:05:44;;;;;;;8.45;5.55;;;14.00;99.90;;;;;;5077623;28;20038;-87
2023/09/03 01:08:11;;;;;;;10.18;5.45;;;14.00;99.90;;;;;;5077704;28;20413;-87
2023/09/03 01:10:58;;;;;;;7.50;5.22;;;14.10;99.90;;;;;;5074514;28;20051;-87
2023/09/03 01:13:51;;;;;;;10.82;5.80;;;14.10;99.90;;;;;;5077768;28;20131;-87
2023/09/03 01:16:24;;;;;;;7.03;5.43;;;14.10;99.90;;;;;;5077735;28;20035;-87
2023/09/03 01:19:31;;;;;;;7.32;5.47;;;14.20;99.90;;;;;;5077391;28;20120;-87
2023/09/03 01:22:26;;;;;;;6.97;5.57;;;14.10;99.90;;;;;;5030001;28;20586;-87
2023/09/03 01:25:12;;;;;;;10.23;5.13;;;14.20;99.90;;;;;;5077651;28;20501;-87
2023/09/03 01:27:51;;;;;;;6.63;5.15;;;14.10;99.90;;;;;;5077572;28;20036;-87
2023/09/03 01:30:18;;;;;;;9.60;5.75;;;14.10;99.90;;;;;;5077019;28;20024;-87
2023/09/03 01:32:47;;;;;;;7.50;5.82;;;14.10;99.90;;;;;;5077558;28;20078;-87
2023/09/03 01:35:13;;;;;;;6.45;4.97;;;14.10;99.90;;;;;;5075859;28;20031;-87
2023/09/03 01:37:39;;;;;;;8.35;6.03;;;14.10;99.90;;;;;;5077369;28;20032;-87
2023/09/03 01:40:05;;;;;;;8.27;6.03;;;14.10;99.90;;;;;;5077049;28;20139;-87
2023/09/03 01:42:31;;;;;;;6.93;5.38;;;14.10;99.90;;;;;;5077758;28;20024;-87
2023/09/03 01:45:06;;;;;;;9.07;5.50;;;14.20;99.90;;;;;;5077841;28;20174;-87
2023/09/03 01:48:01;;;;;;;7.88;5.68;;;14.20;99.90;;;;;;5086573;28;20141;-87
2023/09/03 01:50:58;;;;;;;8.88;6.10;;;14.20;99.90;;;;;;5053296;28;20411;-87
2023/09/03 01:53:32;;;;;;;9.32;5.30;;;14.20;99.90;;;;;;5072797;28;20044;-87
2023/09/03 01:56:02;;;;;;;7.63;4.50;;;14.30;99.90;;;;;;5076701;28;20024;-87
2023/09/03 01:58:31;;;;;;;7.78;5.00;;;14.40;99.90;;;;;;5060594;28;20036;-87
2023/09/03 02:00:59;;;;;;;6.63;5.43;;;14.40;99.90;;;;;;5076339;28;20138;-87
2023/09/03 02:03:26;;;;;;;5.90;4.80;;;14.40;99.90;;;;;;5076742;28;20074;-87
2023/09/03 02:05:52;;;;;;;6.63;5.13;;;14.40;99.90;;;;;;5076676;28;20154;-87
2023/09/03 02:08:18;;;;;;;6.00;4.82;;;14.40;99.90;;;;;;5076446;28;20079;-87
2023/09/03 02:10:43;;;;;;;7.63;4.32;;;14.40;99.90;;;;;;5076868;28;20028;-87
2023/09/03 02:13:09;;;;;;;5.03;4.32;;;14.50;99.90;;;;;;5071976;28;20032;-87
2023/09/03 02:15:35;;;;;;;7.22;3.92;;;14.50;99.90;;;;;;5075806;28;20028;-87
2023/09/03 02:18:00;;;;;;;6.30;4.53;;;14.50;99.90;;;;;;5076110;28;20043;-86
2023/09/03 02:20:26;;;;;;;4.10;3.65;;;14.50;99.90;;;;;;5076603;28;20027;-86
2023/09/03 02:22:52;;;;;;;6.22;3.67;;;14.50;99.90;;;;;;5076056;28;20118;-87
2023/09/03 02:25:18;;;;;;;4.18;3.28;;;14.50;99.90;;;;;;5076172;28;20032;-87
2023/09/03 02:27:43;;;;;;;4.72;3.45;;;14.40;99.90;;;;;;5076266;28;20032;-87
2023/09/03 02:30:09;;;;;;;4.53;4.00;;;14.30;99.90;;;;;;5075825;28;20894;-87
2023/09/03 02:32:35;;;;;;;5.00;3.38;;;14.30;99.90;;;;;;5076114;28;20066;-87
2023/09/03 02:35:01;;;;;;;4.32;3.50;;;14.20;99.90;;;;;;5076010;28;20468;-86
2023/09/03 02:37:27;;;;;;;4.40;3.58;;;14.20;99.90;;;;;;5076339;28;20036;-87
2023/09/03 02:39:53;;;;;;;4.65;3.08;;;14.10;99.90;;;;;;5075755;28;20086;-87
2023/09/03 02:42:18;;;;;;;4.35;3.58;;;14.10;99.90;;;;;;5075657;28;20032;-87
2023/09/03 02:44:44;;;;;;;5.97;3.60;;;14.00;99.90;;;;;;5075680;28;20068;-87
2023/09/03 02:47:09;;;;;;;7.68;3.45;;;14.00;99.90;;;;;;5074437;28;20028;-87
2023/09/03 02:49:41;;;;;;;7.82;4.53;;;13.90;99.90;;;;;;5075827;28;20028;-87
2023/09/03 02:52:07;;;;;;;6.85;3.65;;;13.90;99.90;;;;;;5075735;28;20035;-87
2023/09/03 02:54:32;;;;;;;4.78;3.53;;;13.90;99.90;;;;;;5075404;28;20693;-87
2023/09/03 02:56:58;;;;;;;5.93;3.67;;;13.90;99.90;;;;;;5075342;28;20032;-87
2023/09/03 02:59:24;;;;;;;6.75;3.67;;;13.80;99.90;;;;;;5075252;28;20036;-87
2023/09/03 03:01:49;;;;;;;3.58;3.25;;;13.80;99.90;;;;;;5074909;28;20032;-87
2023/09/03 03:04:15;;;;;;;4.60;3.70;;;13.70;99.90;;;;;;5075438;28;20035;-87
2023/09/03 03:10:28;;;;;;;7.00;4.45;;;13.70;99.90;;;;;;5093550;28;20121;-87
2023/09/03 03:12:54;;;;;;;6.43;4.20;;;13.70;99.90;;;;;;5071781;28;20024;-87
2023/09/03 03:15:19;;;;;;;6.20;3.70;;;13.70;99.90;;;;;;5075362;28;20399;-87
2023/09/03 03:17:46;;;;;;;5.20;3.80;;;13.70;99.90;;;;;;5074907;28;20024;-87
2023/09/03 03:20:12;;;;;;;5.50;3.88;;;13.80;99.90;;;;;;5075293;28;20433;-87
2023/09/03 03:22:38;;;;;;;4.57;4.07;;;13.80;99.90;;;;;;5074248;28;20043;-86
2023/09/03 03:25:48;;;;;;;5.82;3.58;;;13.90;99.90;;;;;;5073756;28;20034;-86
2023/09/03 03:28:14;;;;;;;5.18;3.85;;;13.90;99.90;;;;;;5074760;28;20032;-87
2023/09/03 03:30:39;;;;;;;5.05;4.15;;;13.90;99.90;;;;;;5093146;28;20020;-87
2023/09/03 03:33:05;;;;;;;6.65;4.28;;;13.90;99.90;;;;;;5074788;28;20027;-87
2023/09/03 03:35:37;;;;;;;6.18;4.03;;;13.90;99.90;;;;;;5074878;28;20031;-87
2023/09/03 03:38:03;;;;;;;4.68;3.95;;;13.80;99.90;;;;;;5075326;28;20040;-87
2023/09/03 03:40:29;;;;;;;5.15;3.70;;;13.80;99.90;;;;;;5074942;28;20082;-87
2023/09/03 03:42:54;;;;;;;7.78;4.45;;;13.80;99.90;;;;;;5075037;28;20034;-87
2023/09/03 03:45:20;;;;;;;8.85;5.05;;;13.90;99.90;;;;;;5074559;28;20058;-87
2023/09/03 03:47:48;;;;;;;6.22;4.35;;;13.90;99.90;;;;;;5075170;28;20024;-87
2023/09/03 03:50:14;;;;;;;6.03;4.20;;;13.90;99.90;;;;;;5074670;28;20024;-88
2023/09/03 03:52:40;;;;;;;6.40;4.10;;;14.00;99.90;;;;;;5074491;28;20063;-87
2023/09/03 03:55:06;;;;;;;5.90;4.55;;;13.90;99.90;;;;;;5074877;28;20123;-87
2023/09/03 03:57:50;;;;;;;6.60;4.20;;;14.00;99.90;;;;;;5074654;28;20070;-87
2023/09/03 04:00:16;;;;;;;8.82;4.60;;;14.00;99.90;;;;;;5078130;28;20387;-87
2023/09/03 04:03:02;;;;;;;6.18;4.30;;;14.00;99.90;;;;;;5078307;28;20040;-87
2023/09/03 04:05:28;;;;;;;5.35;4.63;;;13.90;99.90;;;;;;5078793;28;20578;-87
2023/09/03 04:07:54;;;;;;;7.32;4.38;;;14.00;99.90;;;;;;5078251;28;20035;-87
2023/09/03 04:10:20;;;;;;;5.43;4.45;;;14.00;99.90;;;;;;5078462;28;20483;-87
2023/09/03 04:12:46;;;;;;;6.07;4.43;;;13.90;99.90;;;;;;5075419;28;20028;-87
2023/09/03 04:15:20;;;;;;;6.95;4.93;;;13.90;99.90;;;;;;5077139;28;20020;-87
2023/09/03 04:17:46;;;;;;;6.38;4.75;;;13.90;99.90;;;;;;5077636;28;20060;-87
2023/09/03 04:20:12;;;;;;;8.05;4.95;;;13.90;99.90;;;;;;5077965;28;20419;-87
2023/09/03 04:22:38;;;;;;;4.97;4.47;;;13.90;99.90;;;;;;5078152;28;20028;-87
2023/09/03 04:25:05;;;;;;;4.93;4.35;;;14.00;99.90;;;;;;5077653;28;20788;-86
2023/09/03 04:27:31;;;;;;;5.40;4.13;;;14.00;99.90;;;;;;5078293;28;20059;-87
2023/09/03 04:29:57;;;;;;;4.70;3.65;;;14.00;99.90;;;;;;5078058;28;20059;-87
2023/09/03 04:32:23;;;;;;;4.72;3.95;;;14.00;99.90;;;;;;5077939;28;20032;-87
2023/09/03 04:34:51;;;;;;;7.35;4.10;;;13.90;99.90;;;;;;5077812;28;20118;-87
2023/09/03 04:37:17;;;;;;;6.15;4.20;;;13.90;99.90;;;;;;5077589;28;20039;-87
2023/09/03 04:39:42;;;;;;;6.82;4.43;;;13.90;99.90;;;;;;5077670;28;20028;-87
2023/09/03 04:42:08;;;;;;;5.05;3.78;;;14.00;99.90;;;;;;5077555;28;20390;-87
2023/09/03 04:44:37;;;;;;;4.78;4.05;;;14.00;99.90;;;;;;5078499;28;20121;-88
2023/09/03 04:47:05;;;;;;;7.88;4.45;;;14.00;99.90;;;;;;5078394;28;20395;-89
2023/09/03 04:49:33;;;;;;;7.55;4.13;;;14.10;99.90;;;;;;5079504;28;20082;-89
2023/09/03 04:51:58;;;;;;;5.45;3.53;;;14.00;99.90;;;;;;5079257;28;20151;-89
2023/09/03 04:54:25;;;;;;;4.18;3.70;;;14.10;99.90;;;;;;5080364;28;20024;-89
2023/09/03 04:56:52;;;;;;;5.95;3.85;;;14.10;99.90;;;;;;5089149;28;20024;-89
2023/09/03 04:59:18;;;;;;;7.35;4.03;;;14.20;99.90;;;;;;5078482;28;20051;-89
2023/09/03 05:01:46;;;;;;;6.35;3.45;;;14.30;99.90;;;;;;5077849;28;20039;-89
2023/09/03 05:04:12;;;;;;;4.45;3.80;;;14.30;99.90;;;;;;5078412;28;20054;-89
2023/09/03 05:06:38;;;;;;;3.92;3.42;;;14.40;99.90;;;;;;5077963;28;20028;-89
2023/09/03 05:09:06;;;;;;;6.05;3.65;;;14.40;99.90;;;;;;5077182;28;20042;-89
2023/09/03 05:11:32;;;;;;;4.85;3.47;;;14.50;99.90;;;;;;5077065;28;20024;-88
2023/09/03 05:13:58;;;;;;;6.03;3.53;;;14.60;99.90;;;;;;5077317;28;20059;-89
2023/09/03 05:16:26;;;;;;;6.32;3.92;;;14.60;99.90;;;;;;5077435;28;20538;-88
2023/09/03 05:18:52;;;;;;;4.90;3.58;;;14.70;99.90;;;;;;5074279;28;20115;-89
2023/09/03 05:21:18;;;;;;;6.07;3.55;;;14.70;99.90;;;;;;5077304;28;20020;-89
2023/09/03 05:23:44;;;;;;;6.85;4.05;;;14.70;99.90;;;;;;5077190;28;20023;-89
2023/09/03 05:26:11;;;;;;;8.55;4.20;;;14.70;99.90;;;;;;5076892;28;20081;-89
2023/09/03 05:28:39;;;;;;;5.15;3.42;;;14.80;99.90;;;;;;5077618;28;20036;-89
2023/09/03 05:31:05;;;;;;;3.85;3.40;;;14.90;99.90;;;;;;5077194;28;20028;-88
2023/09/03 05:33:32;;;;;;;5.43;3.60;;;14.90;99.90;;;;;;5077004;28;20039;-89
2023/09/03 05:35:58;;;;;;;5.68;3.92;;;15.00;99.90;;;;;;5077294;28;20028;-89
2023/09/03 05:38:23;;;;;;;5.00;3.45;;;15.00;99.90;;;;;;5077293;28;20092;-89
2023/09/03 05:40:49;;;;;;;3.58;2.92;;;15.10;99.90;;;;;;5076744;28;20037;-89
2023/09/03 05:43:15;;;;;;;4.28;3.47;;;15.20;99.90;;;;;;5076789;28;20028;-89
2023/09/03 05:45:45;;;;;;;3.67;2.88;;;15.20;99.90;;;;;;5077057;28;20024;-88
2023/09/03 05:48:12;;;;;;;4.90;3.17;;;15.30;99.90;;;;;;5076917;28;20527;-89
2023/09/03 05:50:38;;;;;;;3.80;3.03;;;15.40;99.90;;;;;;5077065;28;20046;-89
2023/09/03 05:53:04;;;;;;;5.28;3.08;;;15.50;99.90;;;;;;5077118;28;20479;-89
2023/09/03 05:55:29;;;;;;;4.70;2.60;;;15.70;99.90;;;;;;5077176;28;20048;-89
2023/09/03 05:57:55;;;;;;;3.35;2.80;;;15.80;99.90;;;;;;5076990;28;20028;-89
2023/09/03 06:00:21;;;;;;;4.03;2.72;;;15.90;99.90;;;;;;5076882;28;20046;-89
2023/09/03 06:02:50;;;;;;;8.15;2.47;;;16.10;99.90;;;;;;5078823;28;20088;-89
2023/09/03 06:05:17;;;;;;;3.28;2.28;;;16.20;99.90;;;;;;5077533;28;20057;-89
2023/09/03 06:07:44;;;;;;;2.75;2.22;;;16.30;99.90;;;;;;5077671;28;20488;-89
2023/09/03 06:10:09;;;;;;;3.78;2.47;;;16.30;99.90;;;;;;5076268;28;20032;-89
2023/09/03 06:12:35;;;;;;;2.47;2.05;;;16.50;99.90;;;;;;5076568;28;20092;-89
2023/09/03 06:15:01;;;;;;;5.38;2.25;;;16.60;99.90;;;;;;5077082;28;20484;-88
2023/09/03 06:17:27;;;;;;;3.05;1.70;;;16.70;99.90;;;;;;5076569;28;20068;-90
2023/09/03 06:19:54;;;;;;;2.85;2.13;;;16.90;99.90;;;;;;5076267;28;20039;-89
2023/09/03 06:22:19;;;;;;;4.18;1.90;;;17.10;99.90;;;;;;5076117;28;20495;-89
2023/09/03 06:24:45;;;;;;;4.72;1.80;;;17.20;99.90;;;;;;5076683;28;20039;-89
2023/09/03 06:27:10;;;;;;;3.95;1.90;;;17.30;99.90;;;;;;5076248;28;20024;-89
2023/09/03 06:29:36;;;;;;;1.77;1.50;;;17.50;99.90;;;;;;5076001;28;20028;-90
2023/09/03 06:32:02;;;;;;;2.08;1.75;;;17.60;99.90;;;;;;5076196;28;20024;-89
2023/09/03 06:34:28;;;;;;;6.50;1.77;;;17.90;99.90;;;;;;5075993;28;20063;-89
2023/09/03 06:37:01;;;;;;;2.83;1.83;;;18.10;99.90;;;;;;5075748;28;20024;-89
2023/09/03 06:39:26;;;;;;;5.10;1.95;;;18.20;99.90;;;;;;5075875;28;20379;-89
2023/09/03 06:41:52;;;;;;;5.90;2.03;;;18.30;99.90;;;;;;5075579;28;20034;-89
2023/09/03 06:44:18;;;;;;;5.00;2.15;;;18.50;99.90;;;;;;5075885;28;20379;-89
2023/09/03 06:46:44;;;;;;;2.85;2.03;;;18.70;99.90;;;;;;5076177;28;20055;-89
2023/09/03 06:49:09;;;;;;;4.20;1.50;;;18.90;99.90;;;;;;5076237;28;20032;-89
2023/09/03 06:51:35;;;;;;;2.08;1.40;;;19.00;99.90;;;;;;5076023;28;20032;-89
2023/09/03 06:54:04;;;;;;;4.82;2.00;;;19.10;99.90;;;;;;5075961;28;20028;-87
2023/09/03 06:56:30;;;;;;;3.75;1.80;;;19.20;99.90;;;;;;5075099;28;20042;-87
2023/09/03 06:58:55;;;;;;;3.83;1.50;;;19.20;99.90;;;;;;5075034;28;20035;-86
2023/09/03 07:01:21;;;;;;;2.28;1.50;;;19.30;99.90;;;;;;5074829;28;20028;-87
2023/09/03 07:03:47;;;;;;;2.10;1.60;;;19.40;99.90;;;;;;5074569;28;20047;-86
2023/09/03 07:06:13;;;;;;;3.63;1.67;;;19.50;99.90;;;;;;5074198;28;20056;-87
2023/09/03 07:08:38;;;;;;;2.08;1.65;;;19.60;99.90;;;;;;5074900;28;20085;-87
2023/09/03 07:11:04;;;;;;;5.15;1.52;;;19.70;99.90;;;;;;5075182;28;20032;-87
2023/09/03 07:13:30;;;;;;;2.58;1.50;;;19.80;99.90;;;;;;5074629;28;20122;-87
2023/09/03 07:15:55;;;;;;;1.92;1.20;;;19.80;99.90;;;;;;5075022;28;20443;-87
2023/09/03 07:18:21;;;;;;;1.98;1.33;;;19.80;99.90;;;;;;5075023;28;20028;-87
2023/09/03 07:20:47;;;;;;;1.48;1.20;;;19.90;99.90;;;;;;5074856;28;20074;-89
2023/09/03 07:23:12;;;;;;;2.42;1.40;;;20.00;99.90;;;;;;5074815;28;20383;-88
2023/09/03 07:25:38;;;;;;;1.20;1.10;;;20.10;99.90;;;;;;5074850;28;20357;-87
2023/09/03 07:28:04;;;;;;;2.10;1.08;;;20.20;99.90;;;;;;5075182;28;20037;-86
2023/09/03 07:30:30;;;;;;;1.27;1.13;;;20.30;99.90;;;;;;5091660;28;20395;-88
2023/09/03 07:32:56;;;;;;;2.40;0.80;;;20.30;99.90;;;;;;5075929;28;20124;-88
2023/09/03 07:35:22;;;;;;;1.60;1.15;;;20.50;99.90;;;;;;5078648;28;20439;-87
2023/09/03 07:37:48;;;;;;;2.40;1.45;;;20.70;99.90;;;;;;5078948;28;20028;-87
2023/09/03 07:40:13;;;;;;;4.43;1.30;;;21.00;99.90;;;;;;5078881;28;20116;-88
2023/09/03 07:42:39;;;;;;;2.10;1.15;;;21.10;99.90;;;;;;5078973;28;20032;-88
2023/09/03 07:45:05;;;;;;;1.30;1.05;;;21.20;99.90;;;;;;5078694;28;20046;-88
2023/09/03 07:47:31;;;;;;;3.33;1.17;;;21.30;99.90;;;;;;5078516;28;20118;-88
2023/09/03 07:49:57;;;;;;;1.42;1.00;;;21.30;99.90;;;;;;5078792;28;20040;-88
2023/09/03 07:52:22;;;;;;;4.93;1.23;;;21.30;99.90;;;;;;5078699;28;20035;-87
2023/09/03 07:54:48;;;;;;;1.80;1.15;;;21.50;99.90;;;;;;5078825;28;20026;-87
2023/09/03 07:57:14;;;;;;;2.00;1.45;;;21.60;99.90;;;;;;5078493;28;20089;-88
2023/09/03 07:59:40;;;;;;;2.05;1.27;;;21.80;99.90;;;;;;5079328;28;20040;-87
2023/09/03 08:02:06;;;;;;;1.42;1.20;;;21.80;99.90;;;;;;5079297;28;20020;-88
2023/09/03 08:04:31;;;;;;;2.47;1.10;;;21.90;99.90;;;;;;5079972;28;20032;-88
2023/09/03 08:06:57;;;;;;;7.97;1.50;;;22.00;99.90;;;;;;5079234;28;20039;-87
2023/09/03 08:09:24;;;;;;;1.50;1.00;;;22.20;99.90;;;;;;5097465;28;20024;-87
2023/09/03 08:11:51;;;;;;;7.18;5.03;;;22.30;99.90;;;;;;5078899;28;20035;-88
2023/09/03 08:14:16;;;;;;;1.98;1.50;;;22.50;99.90;;;;;;5078422;28;20046;-88
2023/09/03 08:16:42;;;;;;;2.70;1.52;;;22.50;99.90;;;;;;5078053;28;20028;-87
2023/09/03 08:19:08;;;;;;;1.83;1.20;;;22.50;99.90;;;;;;5078937;28;20032;-87
2023/09/03 08:21:33;;;;;;;6.82;1.35;;;22.60;99.90;;;;;;5078923;28;20149;-87
2023/09/03 08:23:59;;;;;;;1.67;1.05;;;22.50;99.90;;;;;;5096635;28;20028;-88
2023/09/03 08:26:25;;;;;;;1.95;1.20;;;22.30;99.90;;;;;;5078900;28;20028;-87
2023/09/03 08:28:50;;;;;;;1.10;0.95;;;22.20;99.90;;;;;;5078501;28;20032;-88
2023/09/03 08:31:16;;;;;;;2.67;1.25;;;22.20;99.90;;;;;;5078755;28;20085;-86
2023/09/03 08:33:42;;;;;;;1.40;1.10;;;22.30;99.90;;;;;;5078272;28;20028;-86
2023/09/03 08:36:07;;;;;;;2.10;1.23;;;22.20;99.90;;;;;;5078256;28;20082;-87
2023/09/03 08:38:33;;;;;;;3.17;1.23;;;22.20;99.90;;;;;;5078146;28;20044;-88
2023/09/03 08:40:59;;;;;;;1.73;1.48;;;22.10;99.90;;;;;;5077813;28;20036;-87
2023/09/03 08:43:28;;;;;;;2.70;1.50;;;22.00;99.90;;;;;;5078480;28;20036;-87
2023/09/03 08:46:06;;;;;;;1.05;1.02;;;21.90;99.90;;;;;;5077123;28;20047;-87
2023/09/03 08:48:33;;;;;;;4.55;1.20;;;21.80;99.90;;;;;;5077316;28;20038;-87
2023/09/03 08:50:59;;;;;;;1.90;1.45;;;21.60;99.90;;;;;;5078728;28;20028;-88
2023/09/03 08:53:26;;;;;;;5.43;3.65;;;21.90;99.90;;;;;;5077540;28;20446;-88
2023/09/03 08:55:52;;;;;;;6.68;4.20;;;22.30;99.90;;;;;;5077586;28;20097;-88
2023/09/03 08:58:43;;;;;;;2.60;1.35;;;23.00;99.90;;;;;;5077241;28;20071;-86
2023/09/03 09:01:11;;;;;;;1.52;1.13;;;23.60;99.90;;;;;;5076821;28;20082;-88
2023/09/03 09:03:38;;;;;;;1.27;1.00;;;24.00;99.90;;;;;;5076715;28;20695;-88
2023/09/03 09:06:07;;;;;;;4.05;1.08;;;24.70;99.90;;;;;;5095075;28;20036;-87
2023/09/03 09:08:33;;;;;;;2.15;1.17;;;25.00;99.90;;;;;;5077134;28;20483;-88
2023/09/03 09:11:04;;;;;;;1.35;0.90;;;25.50;99.90;;;;;;5076636;28;20035;-88
2023/09/03 09:13:35;;;;;;;3.50;1.10;;;25.90;99.90;;;;;;5060288;28;20131;-87
2023/09/03 09:16:01;;;;;;;2.80;1.30;;;26.20;99.90;;;;;;5077732;28;20028;-88
2023/09/03 09:18:26;;;;;;;2.72;1.10;;;26.40;99.90;;;;;;5077890;28;20051;-89
2023/09/03 09:20:57;;;;;;;1.17;1.08;;;26.10;99.90;;;;;;5077711;28;20031;-89
2023/09/03 09:23:24;;;;;;;2.00;1.10;;;26.00;99.90;;;;;;5077915;28;20070;-90
2023/09/03 09:25:50;;;;;;;2.17;1.20;;;25.80;99.90;;;;;;5078344;28;20032;-90
2023/09/03 09:28:16;;;;;;;1.63;1.20;;;26.40;99.90;;;;;;5078260;28;20032;-89
2023/09/03 09:30:56;;;;;;;2.03;1.10;;;26.70;99.90;;;;;;5077461;28;20090;-89
2023/09/03 09:33:22;;;;;;;3.70;1.20;;;26.60;99.90;;;;;;5077614;28;20403;-90
2023/09/03 09:35:48;;;;;;;2.92;1.10;;;26.90;99.90;;;;;;5077656;28;20024;-89
2023/09/03 09:38:14;;;;;;;2.00;1.10;;;27.20;99.90;;;;;;5095222;28;20037;-90
2023/09/03 09:41:19;;;;;;;6.20;2.30;;;26.90;99.90;;;;;;5077684;28;20451;-90
2023/09/03 09:43:48;;;;;;;14.05;11.15;;;26.10;99.90;;;;;;5078365;28;20032;-90
2023/09/03 09:46:30;;;;;;;1.92;1.15;;;26.10;99.90;;;;;;5077652;28;20035;-89
2023/09/03 09:48:58;;;;;;;2.28;1.30;;;26.20;99.90;;;;;;5077307;28;20564;-91
2023/09/03 09:51:25;;;;;;;11.95;2.50;;;26.20;99.90;;;;;;5077587;28;20054;-89
2023/09/03 09:54:03;;;;;;;5.03;1.20;;;26.00;99.90;;;;;;5077892;28;20376;-90
2023/09/03 09:56:31;;;;;;;6.60;1.50;;;26.00;99.90;;;;;;5076841;28;20060;-88
2023/09/03 09:58:58;;;;;;;6.25;1.50;;;26.10;99.90;;;;;;5077318;28;20036;-88
2023/09/03 10:01:27;;;;;;;2.35;1.30;;;26.10;99.90;;;;;;5077505;28;20035;-91
2023/09/03 10:03:53;;;;;;;3.03;1.40;;;26.70;99.90;;;;;;5078178;28;20110;-89
2023/09/03 10:06:25;;;;;;;2.13;1.88;;;26.70;99.90;;;;;;5077612;28;20119;-89
2023/09/03 10:08:57;;;;;;;1.33;1.13;;;26.90;99.90;;;;;;5077413;28;20042;-90
2023/09/03 10:11:23;;;;;;;1.85;1.60;;;27.90;99.90;;;;;;5077804;28;20062;-89
2023/09/03 10:13:49;;;;;;;1.58;1.48;;;28.30;99.90;;;;;;5077724;28;20032;-89
2023/09/03 10:16:19;;;;;;;5.10;1.90;;;28.10;99.90;;;;;;5077688;28;20020;-90
2023/09/03 10:18:48;;;;;;;4.80;1.87;;;27.90;99.90;;;;;;5077766;28;20032;-91
2023/09/03 10:21:21;;;;;;;1.58;1.20;;;28.00;99.90;;;;;;5077282;28;20270;-90
2023/09/03 10:23:51;;;;;;;5.18;2.00;;;28.00;99.90;;;;;;5077768;28;20036;-89
2023/09/03 10:27:01;;;;;;;2.97;1.67;;;28.20;99.90;;;;;;5077080;28;20479;-89
2023/09/03 10:29:30;;;;;;;2.45;1.67;;;28.70;99.90;;;;;;5076949;28;20069;-89
2023/09/03 10:31:58;;;;;;;2.28;1.40;;;29.00;99.90;;;;;;5077508;28;20028;-89
2023/09/03 10:34:39;;;;;;;6.72;1.52;;;28.90;99.90;;;;;;5077562;28;20039;-89
2023/09/03 10:37:43;;;;;;;4.10;1.70;;;29.30;99.90;;;;;;5076988;28;20181;-89
2023/09/03 10:40:23;;;;;;;4.00;2.55;;;29.50;99.90;;;;;;5076924;28;20127;-88
2023/09/03 10:42:50;;;;;;;3.38;1.42;;;29.30;99.90;;;;;;5077282;28;20034;-89
2023/09/03 10:45:16;;;;;;;7.28;2.40;;;28.40;99.90;;;;;;5095253;28;20102;-90
2023/09/03 10:47:58;;;;;;;4.85;2.17;;;28.20;99.90;;;;;;5077493;28;20126;-90
2023/09/03 10:50:43;;;;;;;4.28;1.63;;;28.00;99.90;;;;;;5077623;28;20376;-89
2023/09/03 10:53:28;;;;;;;5.18;2.65;;;27.90;99.90;;;;;;5077278;28;20035;-90
2023/09/03 10:56:22;;;;;;;2.17;1.98;;;27.50;99.90;;;;;;5060434;28;20032;-90
2023/09/03 10:58:58;;;;;;;3.75;3.08;;;26.80;99.90;;;;;;5077096;28;20038;-90
2023/09/03 11:01:32;;;;;;;16.92;10.07;;;26.50;99.90;;;;;;5077271;28;20090;-89
2023/09/03 11:04:00;;;;;;;21.48;12.25;;;26.60;99.90;;;;;;5077308;28;20039;-91
2023/09/03 11:06:33;;;;;;;16.75;10.50;;;26.60;99.90;;;;;;5077534;28;20035;-90
2023/09/03 11:08:59;;;;;;;6.95;5.68;;;26.90;99.90;;;;;;5076912;28;20475;-91
2023/09/03 11:11:27;;;;;;;3.22;2.30;;;27.10;99.90;;;;;;5076373;28;20034;-89
2023/09/03 11:13:53;;;;;;;2.65;2.13;;;26.80;99.90;;;;;;5077085;28;20032;-89
2023/09/03 11:16:42;;;;;;;26.85;19.55;;;27.20;99.90;;;;;;5077510;28;20040;-90
2023/09/03 11:19:08;;;;;;;10.52;8.00;;;27.80;99.90;;;;;;5060126;28;20131;-91
2023/09/03 11:21:35;;;;;;;3.80;1.63;;;27.90;99.90;;;;;;5075661;28;20491;-88
2023/09/03 11:24:18;;;;;;;4.82;1.73;;;28.10;99.90;;;;;;5077036;28;20359;-89
2023/09/03 11:26:44;;;;;;;1.98;1.75;;;27.90;99.90;;;;;;5076600;28;20027;-90
2023/09/03 11:29:23;;;;;;;2.25;1.40;;;27.80;99.90;;;;;;5077041;28;20383;-90
2023/09/03 11:31:50;;;;;;;7.03;1.90;;;28.00;99.90;;;;;;5077207;28;20360;-89
2023/09/03 11:34:19;;;;;;;3.25;1.60;;;28.50;99.90;;;;;;5076866;28;20024;-90
2023/09/03 11:36:46;;;;;;;4.80;1.83;;;28.50;99.90;;;;;;5076314;28;20034;-91
2023/09/03 11:39:16;;;;;;;3.85;1.80;;;28.80;99.90;;;;;;5076447;28;20106;-89
2023/09/03 11:41:46;;;;;;;2.67;1.40;;;29.40;99.90;;;;;;5076046;28;20463;-89
2023/09/03 11:44:20;;;;;;;1.75;1.65;;;29.50;99.90;;;;;;5060939;28;20086;-92
2023/09/03 11:46:59;;;;;;;1.92;1.48;;;29.50;99.90;;;;;;5076991;28;20032;-90
2023/09/03 11:49:25;;;;;;;2.03;1.83;;;29.90;99.90;;;;;;5076563;28;20038;-90
2023/09/03 11:51:52;;;;;;;1.75;1.65;;;30.10;99.90;;;;;;5076909;28;20092;-89
2023/09/03 11:54:27;;;;;;;1.73;1.52;;;29.60;99.90;;;;;;5076820;28;20028;-89
2023/09/03 11:56:57;;;;;;;1.80;1.70;;;29.10;99.90;;;;;;5076489;28;20059;-88
2023/09/03 11:59:23;;;;;;;;;;;29.50;99.90;;;;;;5076582;28;20032;-89
2023/09/03 12:01:50;;;;;;;2.53;2.10;;;29.40;99.90;;;;;;5076380;28;19969;-89
2023/09/03 12:04:16;;;;;;;2.03;1.60;;;29.60;99.90;;;;;;5076357;28;20086;-90
2023/09/03 12:06:42;;;;;;;2.85;2.13;;;29.90;99.90;;;;;;5077164;28;20032;-90
2023/09/03 12:09:08;;;;;;;2.42;1.88;;;29.70;99.90;;;;;;5077772;28;20083;-90
2023/09/03 12:11:34;;;;;;;2.05;1.70;;;29.40;99.90;;;;;;5076053;28;20059;-90
2023/09/03 12:14:00;;;;;;;1.77;1.67;;;29.00;99.90;;;;;;5076431;28;20471;-91
2023/09/03 12:16:27;;;;;;;2.40;1.80;;;29.10;99.90;;;;;;5077362;28;20036;-90
2023/09/03 12:19:01;;;;;;;1.83;1.73;;;29.00;99.90;;;;;;5075974;28;20727;-89
2023/09/03 12:21:35;;;;;;;2.20;2.00;;;29.10;99.90;;;;;;5080165;28;20047;-90
2023/09/03 12:24:05;;;;;;;3.58;2.05;;;29.10;99.90;;;;;;5079937;28;20028;-90
2023/09/03 12:26:32;;;;;;;4.93;2.25;;;29.00;99.90;;;;;;5079764;28;20031;-89
2023/09/03 12:29:00;;;;;;;2.60;1.90;;;29.30;99.90;;;;;;5079922;28;20028;-89
2023/09/03 12:31:44;;;;;;;2.55;2.35;;;29.40;99.90;;;;;;5079955;28;20028;-91
2023/09/03 12:34:10;;;;;;;2.63;1.67;;;29.20;99.90;;;;;;5079859;28;20036;-90
2023/09/03 12:36:56;;;;;;;3.05;2.42;;;29.20;99.90;;;;;;5080115;28;20110;-90
2023/09/03 12:39:34;;;;;;;3.25;2.15;;;29.10;99.90;;;;;;5080016;28;20483;-90
2023/09/03 12:42:01;;;;;;;2.78;2.10;;;28.50;99.90;;;;;;5080215;28;20043;-89
2023/09/03 12:44:28;;;;;;;2.60;2.33;;;28.00;99.90;;;;;;5079754;28;20121;-90
2023/09/03 12:46:54;;;;;;;2.42;2.20;;;27.30;99.90;;;;;;5079614;28;20039;-89
2023/09/03 12:49:20;;;;;;;3.47;2.70;;;26.40;99.90;;;;;;5079262;28;20388;-89
2023/09/03 12:51:47;;;;;;;2.97;2.70;;;25.70;99.90;;;;;;5079209;28;20039;-90
2023/09/03 12:54:23;;;;;;;2.92;2.53;;;25.30;99.90;;;;;;5097219;28;20021;-90
2023/09/03 12:56:49;;;;;;;3.17;2.35;;;25.30;99.90;;;;;;5078829;28;20032;-90
2023/09/03 12:59:15;;;;;;;3.97;2.15;;;25.80;99.90;;;;;;5079602;28;20122;-90
2023/09/03 13:01:41;;;;;;;2.97;2.20;;;26.00;99.90;;;;;;5078912;28;20074;-90